Links Sitemap Venhuizerweer voor mobiel Sitemap

AMSTERDAM SCHIPHOL:
Amsterdam Airport Schiphol, Netherlands (EHAM) 52-18N 004-46E -2M
May 26, 2024 - 12:55 AM EDT / 2024.05.26 0455 UTC
Wind: from the SE (130 degrees) at 10 MPH (9 KT):0
Visibility: greater than 7 mile(s):0
Temperature: 57 F (14 C)
Dew Point: 53 F (12 C)
Relative Humidity: 87%
Pressure (altimeter): 29.97 in. Hg (1015 hPa)
ob: EHAM 260455Z 13009KT CAVOK 14/12 Q1015 NOSIG
cycle: 5
Copyright © 2005 - 2024 Venhuizerweer | Venhuizen Noord-Holland - Alle Rechten Voorbehouden